sensor_id;sensor_type;location;lat;lon;timestamp;P1;durP1;ratioP1;P2;durP2;ratioP2
45762;SDS011;37512;52.408;13.356;2023-07-31T00:01:27;4.78;;;2.30;;
45762;SDS011;37512;52.408;13.356;2023-07-31T00:05:28;3.65;;;2.38;;
45762;SDS011;37512;52.408;13.356;2023-07-31T00:09:30;3.67;;;2.45;;
45762;SDS011;37512;52.408;13.356;2023-07-31T00:13:32;5.43;;;2.67;;
45762;SDS011;37512;52.408;13.356;2023-07-31T00:17:33;4.28;;;2.33;;
45762;SDS011;37512;52.408;13.356;2023-07-31T00:21:35;4.68;;;2.50;;
45762;SDS011;37512;52.408;13.356;2023-07-31T00:25:37;2.38;;;1.90;;
45762;SDS011;37512;52.408;13.356;2023-07-31T00:29:38;7.30;;;3.50;;
45762;SDS011;37512;52.408;13.356;2023-07-31T00:33:43;3.28;;;2.40;;
45762;SDS011;37512;52.408;13.356;2023-07-31T00:37:44;4.60;;;2.17;;
45762;SDS011;37512;52.408;13.356;2023-07-31T00:41:46;3.45;;;2.40;;
45762;SDS011;37512;52.408;13.356;2023-07-31T00:45:47;3.40;;;2.13;;
45762;SDS011;37512;52.408;13.356;2023-07-31T00:49:49;4.30;;;2.13;;
45762;SDS011;37512;52.408;13.356;2023-07-31T00:53:51;4.55;;;2.42;;
45762;SDS011;37512;52.408;13.356;2023-07-31T00:57:55;5.35;;;2.35;;
45762;SDS011;37512;52.408;13.356;2023-07-31T01:01:57;4.35;;;2.42;;
45762;SDS011;37512;52.408;13.356;2023-07-31T01:10:23;7.30;;;2.85;;
45762;SDS011;37512;52.408;13.356;2023-07-31T01:14:30;6.20;;;2.72;;
45762;SDS011;37512;52.408;13.356;2023-07-31T01:18:31;5.10;;;2.47;;
45762;SDS011;37512;52.408;13.356;2023-07-31T01:27:07;7.68;;;3.28;;
45762;SDS011;37512;52.408;13.356;2023-07-31T01:31:16;4.32;;;2.63;;
45762;SDS011;37512;52.408;13.356;2023-07-31T01:35:24;4.57;;;2.50;;
45762;SDS011;37512;52.408;13.356;2023-07-31T01:39:26;5.13;;;2.88;;
45762;SDS011;37512;52.408;13.356;2023-07-31T01:43:28;5.35;;;2.78;;
45762;SDS011;37512;52.408;13.356;2023-07-31T01:47:29;7.20;;;3.88;;
45762;SDS011;37512;52.408;13.356;2023-07-31T01:51:31;3.03;;;2.58;;
45762;SDS011;37512;52.408;13.356;2023-07-31T01:55:35;5.45;;;3.03;;
45762;SDS011;37512;52.408;13.356;2023-07-31T01:59:37;7.07;;;3.15;;
45762;SDS011;37512;52.408;13.356;2023-07-31T02:03:38;10.88;;;3.42;;
45762;SDS011;37512;52.408;13.356;2023-07-31T02:07:40;5.63;;;3.38;;
45762;SDS011;37512;52.408;13.356;2023-07-31T02:11:42;6.82;;;3.08;;
45762;SDS011;37512;52.408;13.356;2023-07-31T02:15:44;6.05;;;3.80;;
45762;SDS011;37512;52.408;13.356;2023-07-31T02:19:46;5.05;;;3.00;;
45762;SDS011;37512;52.408;13.356;2023-07-31T02:23:48;5.38;;;3.33;;
45762;SDS011;37512;52.408;13.356;2023-07-31T02:27:49;6.07;;;3.42;;
45762;SDS011;37512;52.408;13.356;2023-07-31T02:31:51;6.00;;;3.20;;
45762;SDS011;37512;52.408;13.356;2023-07-31T02:35:53;4.68;;;3.22;;
45762;SDS011;37512;52.408;13.356;2023-07-31T02:39:54;5.15;;;3.03;;
45762;SDS011;37512;52.408;13.356;2023-07-31T02:43:56;5.05;;;3.20;;
45762;SDS011;37512;52.408;13.356;2023-07-31T02:47:57;5.47;;;3.53;;
45762;SDS011;37512;52.408;13.356;2023-07-31T02:51:59;11.32;;;4.20;;
45762;SDS011;37512;52.408;13.356;2023-07-31T02:56:01;6.53;;;3.80;;
45762;SDS011;37512;52.408;13.356;2023-07-31T03:00:02;5.70;;;3.92;;
45762;SDS011;37512;52.408;13.356;2023-07-31T03:04:07;8.00;;;4.38;;
45762;SDS011;37512;52.408;13.356;2023-07-31T03:08:08;7.10;;;3.85;;
45762;SDS011;37512;52.408;13.356;2023-07-31T03:12:10;8.30;;;4.32;;
45762;SDS011;37512;52.408;13.356;2023-07-31T03:16:12;6.70;;;4.53;;
45762;SDS011;37512;52.408;13.356;2023-07-31T03:20:13;9.77;;;4.05;;
45762;SDS011;37512;52.408;13.356;2023-07-31T03:24:19;6.70;;;4.35;;
45762;SDS011;37512;52.408;13.356;2023-07-31T03:28:20;7.28;;;4.88;;
45762;SDS011;37512;52.408;13.356;2023-07-31T03:32:22;9.30;;;4.22;;
45762;SDS011;37512;52.408;13.356;2023-07-31T03:36:23;6.25;;;4.68;;
45762;SDS011;37512;52.408;13.356;2023-07-31T03:40:25;8.85;;;4.60;;
45762;SDS011;37512;52.408;13.356;2023-07-31T03:44:27;6.60;;;4.30;;
45762;SDS011;37512;52.408;13.356;2023-07-31T03:48:28;9.75;;;4.63;;
45762;SDS011;37512;52.408;13.356;2023-07-31T03:52:30;10.45;;;4.72;;
45762;SDS011;37512;52.408;13.356;2023-07-31T03:56:32;7.07;;;4.63;;
45762;SDS011;37512;52.408;13.356;2023-07-31T04:00:36;8.40;;;4.60;;
45762;SDS011;37512;52.408;13.356;2023-07-31T04:04:38;6.22;;;4.10;;
45762;SDS011;37512;52.408;13.356;2023-07-31T04:08:39;5.22;;;4.43;;
45762;SDS011;37512;52.408;13.356;2023-07-31T04:12:41;8.57;;;4.60;;
45762;SDS011;37512;52.408;13.356;2023-07-31T04:16:42;8.48;;;5.00;;
45762;SDS011;37512;52.408;13.356;2023-07-31T04:20:44;6.45;;;5.03;;
45762;SDS011;37512;52.408;13.356;2023-07-31T04:24:46;13.68;;;5.45;;
45762;SDS011;37512;52.408;13.356;2023-07-31T04:28:47;7.85;;;4.45;;
45762;SDS011;37512;52.408;13.356;2023-07-31T04:32:49;12.63;;;4.80;;
45762;SDS011;37512;52.408;13.356;2023-07-31T04:36:53;7.82;;;5.25;;
45762;SDS011;37512;52.408;13.356;2023-07-31T04:40:55;9.02;;;4.90;;
45762;SDS011;37512;52.408;13.356;2023-07-31T04:44:56;9.70;;;4.50;;
45762;SDS011;37512;52.408;13.356;2023-07-31T04:48:58;8.23;;;4.45;;
45762;SDS011;37512;52.408;13.356;2023-07-31T04:52:59;8.45;;;4.35;;
45762;SDS011;37512;52.408;13.356;2023-07-31T04:57:01;8.05;;;4.68;;
45762;SDS011;37512;52.408;13.356;2023-07-31T05:01:03;6.53;;;4.00;;
45762;SDS011;37512;52.408;13.356;2023-07-31T05:05:04;9.23;;;4.00;;
45762;SDS011;37512;52.408;13.356;2023-07-31T05:09:06;7.95;;;4.20;;
45762;SDS011;37512;52.408;13.356;2023-07-31T05:13:08;6.85;;;3.60;;
45762;SDS011;37512;52.408;13.356;2023-07-31T05:17:09;9.13;;;3.58;;
45762;SDS011;37512;52.408;13.356;2023-07-31T05:21:11;6.30;;;3.83;;
45762;SDS011;37512;52.408;13.356;2023-07-31T05:25:12;7.72;;;3.03;;
45762;SDS011;37512;52.408;13.356;2023-07-31T05:29:14;7.18;;;3.75;;
45762;SDS011;37512;52.408;13.356;2023-07-31T05:33:16;6.95;;;3.35;;
45762;SDS011;37512;52.408;13.356;2023-07-31T05:37:17;7.32;;;3.40;;
45762;SDS011;37512;52.408;13.356;2023-07-31T05:41:19;4.63;;;3.25;;
45762;SDS011;37512;52.408;13.356;2023-07-31T05:45:21;4.57;;;3.00;;
45762;SDS011;37512;52.408;13.356;2023-07-31T05:49:22;6.60;;;3.50;;
45762;SDS011;37512;52.408;13.356;2023-07-31T05:53:24;6.97;;;3.15;;
45762;SDS011;37512;52.408;13.356;2023-07-31T05:57:26;7.32;;;3.92;;
45762;SDS011;37512;52.408;13.356;2023-07-31T06:01:27;7.63;;;3.38;;
45762;SDS011;37512;52.408;13.356;2023-07-31T06:05:29;6.78;;;3.38;;
45762;SDS011;37512;52.408;13.356;2023-07-31T06:09:31;7.18;;;3.45;;
45762;SDS011;37512;52.408;13.356;2023-07-31T06:13:32;7.10;;;3.50;;
45762;SDS011;37512;52.408;13.356;2023-07-31T06:17:34;5.57;;;3.30;;
45762;SDS011;37512;52.408;13.356;2023-07-31T06:21:36;7.75;;;3.60;;
45762;SDS011;37512;52.408;13.356;2023-07-31T06:25:41;7.00;;;2.72;;
45762;SDS011;37512;52.408;13.356;2023-07-31T06:29:42;6.78;;;3.17;;
45762;SDS011;37512;52.408;13.356;2023-07-31T06:33:44;7.53;;;2.97;;
45762;SDS011;37512;52.408;13.356;2023-07-31T06:37:45;4.85;;;2.42;;
45762;SDS011;37512;52.408;13.356;2023-07-31T06:41:47;4.07;;;2.63;;
45762;SDS011;37512;52.408;13.356;2023-07-31T06:45:48;7.65;;;2.95;;
45762;SDS011;37512;52.408;13.356;2023-07-31T06:49:52;5.30;;;2.55;;
45762;SDS011;37512;52.408;13.356;2023-07-31T06:53:54;4.43;;;2.53;;
45762;SDS011;37512;52.408;13.356;2023-07-31T06:57:56;7.38;;;2.65;;
45762;SDS011;37512;52.408;13.356;2023-07-31T07:01:57;9.65;;;3.35;;
45762;SDS011;37512;52.408;13.356;2023-07-31T07:05:59;5.28;;;2.63;;
45762;SDS011;37512;52.408;13.356;2023-07-31T07:10:02;6.85;;;3.42;;
45762;SDS011;37512;52.408;13.356;2023-07-31T07:14:05;6.35;;;3.28;;
45762;SDS011;37512;52.408;13.356;2023-07-31T07:18:06;7.40;;;3.63;;
45762;SDS011;37512;52.408;13.356;2023-07-31T07:22:09;8.23;;;3.58;;
45762;SDS011;37512;52.408;13.356;2023-07-31T07:26:11;5.90;;;3.13;;
45762;SDS011;37512;52.408;13.356;2023-07-31T07:30:12;3.45;;;2.78;;
45762;SDS011;37512;52.408;13.356;2023-07-31T07:34:15;6.43;;;2.95;;
45762;SDS011;37512;52.408;13.356;2023-07-31T07:38:17;5.93;;;3.78;;
45762;SDS011;37512;52.408;13.356;2023-07-31T07:42:20;5.95;;;3.13;;
45762;SDS011;37512;52.408;13.356;2023-07-31T07:46:22;4.20;;;3.08;;
45762;SDS011;37512;52.408;13.356;2023-07-31T07:50:24;7.90;;;3.50;;
45762;SDS011;37512;52.408;13.356;2023-07-31T07:54:26;7.32;;;3.30;;
45762;SDS011;37512;52.408;13.356;2023-07-31T07:58:28;5.22;;;2.50;;
45762;SDS011;37512;52.408;13.356;2023-07-31T08:02:29;5.95;;;3.25;;
45762;SDS011;37512;52.408;13.356;2023-07-31T08:06:31;7.38;;;3.47;;
45762;SDS011;37512;52.408;13.356;2023-07-31T08:10:33;3.40;;;2.30;;
45762;SDS011;37512;52.408;13.356;2023-07-31T08:14:34;4.43;;;2.90;;
45762;SDS011;37512;52.408;13.356;2023-07-31T08:18:36;6.65;;;4.10;;
45762;SDS011;37512;52.408;13.356;2023-07-31T08:22:38;6.22;;;3.75;;
45762;SDS011;37512;52.408;13.356;2023-07-31T08:26:40;8.20;;;4.20;;
45762;SDS011;37512;52.408;13.356;2023-07-31T08:30:42;6.65;;;3.72;;
45762;SDS011;37512;52.408;13.356;2023-07-31T08:34:44;5.53;;;3.60;;
45762;SDS011;37512;52.408;13.356;2023-07-31T08:38:46;11.75;;;4.43;;
45762;SDS011;37512;52.408;13.356;2023-07-31T08:42:49;5.47;;;2.30;;
45762;SDS011;37512;52.408;13.356;2023-07-31T08:46:51;4.82;;;3.13;;
45762;SDS011;37512;52.408;13.356;2023-07-31T08:50:53;4.80;;;2.58;;
45762;SDS011;37512;52.408;13.356;2023-07-31T08:54:55;6.07;;;3.17;;
45762;SDS011;37512;52.408;13.356;2023-07-31T08:58:57;4.22;;;2.70;;
45762;SDS011;37512;52.408;13.356;2023-07-31T09:07:03;2.97;;;1.70;;
45762;SDS011;37512;52.408;13.356;2023-07-31T09:11:06;2.28;;;1.70;;
45762;SDS011;37512;52.408;13.356;2023-07-31T09:15:08;2.42;;;1.60;;
45762;SDS011;37512;52.408;13.356;2023-07-31T09:19:34;4.30;;;1.45;;
45762;SDS011;37512;52.408;13.356;2023-07-31T09:23:40;2.17;;;1.50;;
45762;SDS011;37512;52.408;13.356;2023-07-31T09:27:56;1.80;;;1.10;;
45762;SDS011;37512;52.408;13.356;2023-07-31T09:31:58;2.08;;;1.33;;
45762;SDS011;37512;52.408;13.356;2023-07-31T09:36:04;2.58;;;1.60;;
45762;SDS011;37512;52.408;13.356;2023-07-31T09:40:06;2.97;;;1.10;;
45762;SDS011;37512;52.408;13.356;2023-07-31T09:44:08;1.75;;;1.48;;
45762;SDS011;37512;52.408;13.356;2023-07-31T09:48:19;5.47;;;2.13;;
45762;SDS011;37512;52.408;13.356;2023-07-31T09:52:21;2.95;;;2.15;;
45762;SDS011;37512;52.408;13.356;2023-07-31T09:56:23;4.38;;;2.13;;
45762;SDS011;37512;52.408;13.356;2023-07-31T10:00:26;7.65;;;2.70;;
45762;SDS011;37512;52.408;13.356;2023-07-31T10:04:29;4.40;;;2.55;;
45762;SDS011;37512;52.408;13.356;2023-07-31T10:08:32;5.45;;;2.78;;
45762;SDS011;37512;52.408;13.356;2023-07-31T10:12:37;5.45;;;3.10;;
45762;SDS011;37512;52.408;13.356;2023-07-31T10:16:39;6.10;;;3.00;;
45762;SDS011;37512;52.408;13.356;2023-07-31T10:20:43;6.53;;;3.90;;
45762;SDS011;37512;52.408;13.356;2023-07-31T10:24:45;5.95;;;3.38;;
45762;SDS011;37512;52.408;13.356;2023-07-31T10:28:47;7.07;;;3.45;;
45762;SDS011;37512;52.408;13.356;2023-07-31T10:32:51;6.93;;;3.40;;
45762;SDS011;37512;52.408;13.356;2023-07-31T10:41:38;6.25;;;3.40;;
45762;SDS011;37512;52.408;13.356;2023-07-31T10:45:42;7.90;;;3.95;;
45762;SDS011;37512;52.408;13.356;2023-07-31T10:49:47;8.07;;;3.05;;
45762;SDS011;37512;52.408;13.356;2023-07-31T10:53:49;4.32;;;2.00;;
45762;SDS011;37512;52.408;13.356;2023-07-31T10:58:12;5.78;;;2.88;;
45762;SDS011;37512;52.408;13.356;2023-07-31T11:02:24;4.07;;;2.15;;
45762;SDS011;37512;52.408;13.356;2023-07-31T11:06:29;6.78;;;2.90;;
45762;SDS011;37512;52.408;13.356;2023-07-31T11:10:30;5.13;;;2.42;;
45762;SDS011;37512;52.408;13.356;2023-07-31T11:14:32;7.03;;;2.25;;
45762;SDS011;37512;52.408;13.356;2023-07-31T11:18:34;7.95;;;2.63;;
45762;SDS011;37512;52.408;13.356;2023-07-31T11:22:36;1.55;;;1.05;;
45762;SDS011;37512;52.408;13.356;2023-07-31T11:26:38;2.30;;;1.90;;
45762;SDS011;37512;52.408;13.356;2023-07-31T11:30:40;3.92;;;2.50;;
45762;SDS011;37512;52.408;13.356;2023-07-31T11:34:52;3.78;;;2.22;;
45762;SDS011;37512;52.408;13.356;2023-07-31T11:39:03;4.93;;;2.47;;
45762;SDS011;37512;52.408;13.356;2023-07-31T11:43:14;3.70;;;2.28;;
45762;SDS011;37512;52.408;13.356;2023-07-31T11:47:18;4.38;;;2.28;;
45762;SDS011;37512;52.408;13.356;2023-07-31T11:51:21;5.18;;;2.30;;
45762;SDS011;37512;52.408;13.356;2023-07-31T11:55:23;4.80;;;2.65;;
45762;SDS011;37512;52.408;13.356;2023-07-31T11:59:25;3.78;;;1.70;;
45762;SDS011;37512;52.408;13.356;2023-07-31T12:03:27;7.70;;;2.10;;
45762;SDS011;37512;52.408;13.356;2023-07-31T12:07:42;3.75;;;2.40;;
45762;SDS011;37512;52.408;13.356;2023-07-31T12:11:45;4.47;;;2.50;;
45762;SDS011;37512;52.408;13.356;2023-07-31T12:15:48;4.18;;;2.03;;
45762;SDS011;37512;52.408;13.356;2023-07-31T12:19:50;7.50;;;2.60;;
45762;SDS011;37512;52.408;13.356;2023-07-31T12:23:52;6.50;;;2.60;;
45762;SDS011;37512;52.408;13.356;2023-07-31T12:27:56;4.50;;;1.95;;
45762;SDS011;37512;52.408;13.356;2023-07-31T12:31:58;3.85;;;1.80;;
45762;SDS011;37512;52.408;13.356;2023-07-31T12:36:00;2.50;;;1.70;;
45762;SDS011;37512;52.408;13.356;2023-07-31T12:40:03;3.35;;;1.92;;
45762;SDS011;37512;52.408;13.356;2023-07-31T12:44:09;2.97;;;1.50;;
45762;SDS011;37512;52.408;13.356;2023-07-31T12:48:11;2.58;;;1.45;;
45762;SDS011;37512;52.408;13.356;2023-07-31T12:52:13;4.35;;;1.83;;
45762;SDS011;37512;52.408;13.356;2023-07-31T12:56:14;2.42;;;1.63;;
45762;SDS011;37512;52.408;13.356;2023-07-31T13:00:15;2.55;;;1.55;;
45762;SDS011;37512;52.408;13.356;2023-07-31T13:04:18;3.05;;;2.00;;
45762;SDS011;37512;52.408;13.356;2023-07-31T13:08:19;4.25;;;1.85;;
45762;SDS011;37512;52.408;13.356;2023-07-31T13:12:21;6.85;;;2.55;;
45762;SDS011;37512;52.408;13.356;2023-07-31T13:16:22;4.07;;;2.05;;
45762;SDS011;37512;52.408;13.356;2023-07-31T13:20:24;4.88;;;1.98;;
45762;SDS011;37512;52.408;13.356;2023-07-31T13:24:25;4.28;;;1.98;;
45762;SDS011;37512;52.408;13.356;2023-07-31T13:28:27;4.05;;;2.40;;
45762;SDS011;37512;52.408;13.356;2023-07-31T13:32:29;3.47;;;2.25;;
45762;SDS011;37512;52.408;13.356;2023-07-31T13:36:30;5.03;;;2.63;;
45762;SDS011;37512;52.408;13.356;2023-07-31T13:40:32;8.00;;;2.53;;
45762;SDS011;37512;52.408;13.356;2023-07-31T13:44:37;4.85;;;2.63;;
45762;SDS011;37512;52.408;13.356;2023-07-31T13:48:42;5.57;;;2.35;;
45762;SDS011;37512;52.408;13.356;2023-07-31T13:52:43;3.95;;;2.35;;
45762;SDS011;37512;52.408;13.356;2023-07-31T13:56:45;8.15;;;2.55;;
45762;SDS011;37512;52.408;13.356;2023-07-31T14:00:47;5.28;;;2.50;;
45762;SDS011;37512;52.408;13.356;2023-07-31T14:04:48;5.05;;;1.77;;
45762;SDS011;37512;52.408;13.356;2023-07-31T14:08:50;4.80;;;2.67;;
45762;SDS011;37512;52.408;13.356;2023-07-31T14:12:51;5.32;;;2.70;;
45762;SDS011;37512;52.408;13.356;2023-07-31T14:16:53;9.55;;;1.85;;
45762;SDS011;37512;52.408;13.356;2023-07-31T14:20:55;5.53;;;2.40;;
45762;SDS011;37512;52.408;13.356;2023-07-31T14:24:57;4.10;;;2.47;;
45762;SDS011;37512;52.408;13.356;2023-07-31T14:28:58;8.00;;;3.00;;
45762;SDS011;37512;52.408;13.356;2023-07-31T14:33:00;4.60;;;3.17;;
45762;SDS011;37512;52.408;13.356;2023-07-31T14:37:03;3.75;;;2.15;;
45762;SDS011;37512;52.408;13.356;2023-07-31T14:41:05;5.40;;;2.45;;
45762;SDS011;37512;52.408;13.356;2023-07-31T14:45:07;4.13;;;2.10;;
45762;SDS011;37512;52.408;13.356;2023-07-31T14:49:10;3.63;;;2.13;;
45762;SDS011;37512;52.408;13.356;2023-07-31T14:53:11;5.30;;;2.63;;
45762;SDS011;37512;52.408;13.356;2023-07-31T14:57:13;4.85;;;2.60;;
45762;SDS011;37512;52.408;13.356;2023-07-31T15:01:14;4.18;;;2.30;;
45762;SDS011;37512;52.408;13.356;2023-07-31T15:05:16;3.70;;;2.13;;
45762;SDS011;37512;52.408;13.356;2023-07-31T15:09:18;4.22;;;2.67;;
45762;SDS011;37512;52.408;13.356;2023-07-31T15:13:19;5.50;;;2.55;;
45762;SDS011;37512;52.408;13.356;2023-07-31T15:17:21;5.18;;;2.40;;
45762;SDS011;37512;52.408;13.356;2023-07-31T15:21:22;5.28;;;2.38;;
45762;SDS011;37512;52.408;13.356;2023-07-31T15:25:24;5.38;;;2.38;;
45762;SDS011;37512;52.408;13.356;2023-07-31T15:29:25;4.15;;;2.38;;
45762;SDS011;37512;52.408;13.356;2023-07-31T15:33:27;4.95;;;2.92;;
45762;SDS011;37512;52.408;13.356;2023-07-31T15:37:29;3.67;;;2.40;;
45762;SDS011;37512;52.408;13.356;2023-07-31T15:41:30;5.05;;;2.42;;
45762;SDS011;37512;52.408;13.356;2023-07-31T15:45:32;4.22;;;2.50;;
45762;SDS011;37512;52.408;13.356;2023-07-31T15:49:34;6.15;;;2.78;;
45762;SDS011;37512;52.408;13.356;2023-07-31T15:53:38;4.85;;;2.17;;
45762;SDS011;37512;52.408;13.356;2023-07-31T15:57:40;5.78;;;2.50;;
45762;SDS011;37512;52.408;13.356;2023-07-31T16:01:42;3.97;;;2.28;;
45762;SDS011;37512;52.408;13.356;2023-07-31T16:05:43;4.32;;;2.67;;
45762;SDS011;37512;52.408;13.356;2023-07-31T16:09:45;4.10;;;2.45;;
45762;SDS011;37512;52.408;13.356;2023-07-31T16:13:47;4.72;;;2.42;;
45762;SDS011;37512;52.408;13.356;2023-07-31T16:17:48;5.82;;;2.92;;
45762;SDS011;37512;52.408;13.356;2023-07-31T16:21:50;3.17;;;1.40;;
45762;SDS011;37512;52.408;13.356;2023-07-31T16:25:52;3.45;;;2.17;;
45762;SDS011;37512;52.408;13.356;2023-07-31T16:29:53;4.85;;;2.35;;
45762;SDS011;37512;52.408;13.356;2023-07-31T16:33:55;4.15;;;2.75;;
45762;SDS011;37512;52.408;13.356;2023-07-31T16:37:56;3.67;;;2.22;;
45762;SDS011;37512;52.408;13.356;2023-07-31T16:41:58;4.07;;;2.13;;
45762;SDS011;37512;52.408;13.356;2023-07-31T16:46:00;4.65;;;2.05;;
45762;SDS011;37512;52.408;13.356;2023-07-31T16:50:01;5.15;;;2.30;;
45762;SDS011;37512;52.408;13.356;2023-07-31T16:54:03;5.78;;;2.33;;
45762;SDS011;37512;52.408;13.356;2023-07-31T16:58:05;2.92;;;1.60;;
45762;SDS011;37512;52.408;13.356;2023-07-31T17:02:06;4.97;;;2.35;;
45762;SDS011;37512;52.408;13.356;2023-07-31T17:06:09;3.10;;;2.00;;
45762;SDS011;37512;52.408;13.356;2023-07-31T17:10:10;4.18;;;1.80;;
45762;SDS011;37512;52.408;13.356;2023-07-31T17:14:12;2.85;;;1.75;;
45762;SDS011;37512;52.408;13.356;2023-07-31T17:18:16;3.60;;;1.77;;
45762;SDS011;37512;52.408;13.356;2023-07-31T17:22:18;3.92;;;1.48;;
45762;SDS011;37512;52.408;13.356;2023-07-31T17:26:20;2.40;;;1.60;;
45762;SDS011;37512;52.408;13.356;2023-07-31T17:30:21;3.80;;;1.90;;
45762;SDS011;37512;52.408;13.356;2023-07-31T17:34:23;4.07;;;1.48;;
45762;SDS011;37512;52.408;13.356;2023-07-31T17:38:25;3.75;;;1.83;;
45762;SDS011;37512;52.408;13.356;2023-07-31T17:42:26;1.92;;;1.40;;
45762;SDS011;37512;52.408;13.356;2023-07-31T17:46:28;1.42;;;0.77;;
45762;SDS011;37512;52.408;13.356;2023-07-31T17:50:30;5.80;;;2.13;;
45762;SDS011;37512;52.408;13.356;2023-07-31T17:54:32;3.53;;;1.40;;
45762;SDS011;37512;52.408;13.356;2023-07-31T17:58:33;2.63;;;1.50;;
45762;SDS011;37512;52.408;13.356;2023-07-31T18:02:35;3.53;;;1.52;;
45762;SDS011;37512;52.408;13.356;2023-07-31T18:06:39;3.70;;;1.90;;
45762;SDS011;37512;52.408;13.356;2023-07-31T18:10:45;5.55;;;1.55;;
45762;SDS011;37512;52.408;13.356;2023-07-31T18:14:47;2.85;;;1.17;;
45762;SDS011;37512;52.408;13.356;2023-07-31T18:18:48;2.80;;;1.73;;
45762;SDS011;37512;52.408;13.356;2023-07-31T18:22:50;3.92;;;1.85;;
45762;SDS011;37512;52.408;13.356;2023-07-31T18:26:51;3.22;;;1.83;;
45762;SDS011;37512;52.408;13.356;2023-07-31T18:30:59;3.67;;;1.85;;
45762;SDS011;37512;52.408;13.356;2023-07-31T18:35:02;5.07;;;2.30;;
45762;SDS011;37512;52.408;13.356;2023-07-31T18:39:04;4.88;;;1.75;;
45762;SDS011;37512;52.408;13.356;2023-07-31T18:43:07;2.70;;;1.60;;
45762;SDS011;37512;52.408;13.356;2023-07-31T18:47:08;3.50;;;1.55;;
45762;SDS011;37512;52.408;13.356;2023-07-31T18:51:10;4.15;;;2.08;;
45762;SDS011;37512;52.408;13.356;2023-07-31T18:55:11;3.85;;;2.08;;
45762;SDS011;37512;52.408;13.356;2023-07-31T18:59:13;5.72;;;2.55;;
45762;SDS011;37512;52.408;13.356;2023-07-31T19:03:15;4.75;;;2.30;;
45762;SDS011;37512;52.408;13.356;2023-07-31T19:07:17;4.78;;;2.47;;
45762;SDS011;37512;52.408;13.356;2023-07-31T19:11:19;4.13;;;2.60;;
45762;SDS011;37512;52.408;13.356;2023-07-31T19:15:33;4.72;;;2.10;;
45762;SDS011;37512;52.408;13.356;2023-07-31T19:19:36;3.67;;;2.28;;
45762;SDS011;37512;52.408;13.356;2023-07-31T19:23:37;6.97;;;2.38;;
45762;SDS011;37512;52.408;13.356;2023-07-31T19:27:39;4.45;;;2.17;;
45762;SDS011;37512;52.408;13.356;2023-07-31T19:31:44;5.93;;;2.25;;
45762;SDS011;37512;52.408;13.356;2023-07-31T19:35:56;3.38;;;2.30;;
45762;SDS011;37512;52.408;13.356;2023-07-31T19:39:59;6.40;;;2.28;;
45762;SDS011;37512;52.408;13.356;2023-07-31T19:44:00;3.15;;;2.28;;
45762;SDS011;37512;52.408;13.356;2023-07-31T19:48:02;5.28;;;1.90;;
45762;SDS011;37512;52.408;13.356;2023-07-31T19:52:04;3.55;;;2.25;;
45762;SDS011;37512;52.408;13.356;2023-07-31T19:56:06;4.60;;;2.65;;
45762;SDS011;37512;52.408;13.356;2023-07-31T20:00:08;7.43;;;2.55;;
45762;SDS011;37512;52.408;13.356;2023-07-31T20:04:09;7.00;;;2.53;;
45762;SDS011;37512;52.408;13.356;2023-07-31T20:08:11;6.05;;;3.00;;
45762;SDS011;37512;52.408;13.356;2023-07-31T20:12:13;6.65;;;2.65;;
45762;SDS011;37512;52.408;13.356;2023-07-31T20:16:17;6.05;;;2.78;;
45762;SDS011;37512;52.408;13.356;2023-07-31T20:20:19;5.65;;;3.20;;
45762;SDS011;37512;52.408;13.356;2023-07-31T20:24:21;5.80;;;3.15;;
45762;SDS011;37512;52.408;13.356;2023-07-31T20:28:23;4.82;;;2.38;;
45762;SDS011;37512;52.408;13.356;2023-07-31T20:32:25;5.55;;;2.92;;
45762;SDS011;37512;52.408;13.356;2023-07-31T20:36:27;8.65;;;3.00;;
45762;SDS011;37512;52.408;13.356;2023-07-31T20:40:28;4.32;;;2.38;;
45762;SDS011;37512;52.408;13.356;2023-07-31T20:44:30;4.78;;;2.72;;
45762;SDS011;37512;52.408;13.356;2023-07-31T20:48:32;9.27;;;5.30;;
45762;SDS011;37512;52.408;13.356;2023-07-31T20:52:33;5.45;;;3.40;;
45762;SDS011;37512;52.408;13.356;2023-07-31T20:56:38;4.00;;;3.20;;
45762;SDS011;37512;52.408;13.356;2023-07-31T21:00:40;7.78;;;3.33;;
45762;SDS011;37512;52.408;13.356;2023-07-31T21:04:44;6.97;;;2.78;;
45762;SDS011;37512;52.408;13.356;2023-07-31T21:08:47;6.32;;;3.28;;
45762;SDS011;37512;52.408;13.356;2023-07-31T21:12:49;6.13;;;3.60;;
45762;SDS011;37512;52.408;13.356;2023-07-31T21:16:51;5.57;;;3.13;;
45762;SDS011;37512;52.408;13.356;2023-07-31T21:20:52;6.53;;;3.35;;
45762;SDS011;37512;52.408;13.356;2023-07-31T21:24:54;3.53;;;2.65;;
45762;SDS011;37512;52.408;13.356;2023-07-31T21:28:56;5.80;;;3.05;;
45762;SDS011;37512;52.408;13.356;2023-07-31T21:32:57;5.40;;;3.38;;
45762;SDS011;37512;52.408;13.356;2023-07-31T21:36:59;7.70;;;3.05;;
45762;SDS011;37512;52.408;13.356;2023-07-31T21:41:00;5.13;;;3.38;;
45762;SDS011;37512;52.408;13.356;2023-07-31T21:45:03;5.13;;;3.53;;
45762;SDS011;37512;52.408;13.356;2023-07-31T21:49:06;5.43;;;3.92;;
45762;SDS011;37512;52.408;13.356;2023-07-31T21:53:08;7.85;;;3.10;;
45762;SDS011;37512;52.408;13.356;2023-07-31T21:57:09;5.95;;;3.03;;
45762;SDS011;37512;52.408;13.356;2023-07-31T22:01:11;7.32;;;3.05;;
45762;SDS011;37512;52.408;13.356;2023-07-31T22:05:13;5.80;;;2.72;;
45762;SDS011;37512;52.408;13.356;2023-07-31T22:09:14;5.22;;;3.53;;
45762;SDS011;37512;52.408;13.356;2023-07-31T22:13:16;7.55;;;3.42;;
45762;SDS011;37512;52.408;13.356;2023-07-31T22:17:17;5.78;;;3.22;;
45762;SDS011;37512;52.408;13.356;2023-07-31T22:21:19;5.53;;;2.95;;
45762;SDS011;37512;52.408;13.356;2023-07-31T22:25:21;4.18;;;2.63;;
45762;SDS011;37512;52.408;13.356;2023-07-31T22:29:23;6.25;;;2.95;;
45762;SDS011;37512;52.408;13.356;2023-07-31T22:33:24;4.25;;;3.03;;
45762;SDS011;37512;52.408;13.356;2023-07-31T22:37:26;6.28;;;3.15;;
45762;SDS011;37512;52.408;13.356;2023-07-31T22:41:27;5.20;;;3.10;;
45762;SDS011;37512;52.408;13.356;2023-07-31T22:45:29;7.28;;;3.38;;
45762;SDS011;37512;52.408;13.356;2023-07-31T22:49:30;7.03;;;3.40;;
45762;SDS011;37512;52.408;13.356;2023-07-31T22:53:33;11.43;;;3.58;;
45762;SDS011;37512;52.408;13.356;2023-07-31T22:57:35;5.82;;;3.20;;
45762;SDS011;37512;52.408;13.356;2023-07-31T23:01:37;5.05;;;3.13;;
45762;SDS011;37512;52.408;13.356;2023-07-31T23:05:38;6.45;;;3.70;;
45762;SDS011;37512;52.408;13.356;2023-07-31T23:09:40;9.10;;;3.70;;
45762;SDS011;37512;52.408;13.356;2023-07-31T23:13:43;7.68;;;3.30;;
45762;SDS011;37512;52.408;13.356;2023-07-31T23:17:45;5.20;;;2.83;;
45762;SDS011;37512;52.408;13.356;2023-07-31T23:21:47;7.38;;;3.67;;
45762;SDS011;37512;52.408;13.356;2023-07-31T23:25:48;12.68;;;3.38;;
45762;SDS011;37512;52.408;13.356;2023-07-31T23:29:50;5.43;;;3.15;;
45762;SDS011;37512;52.408;13.356;2023-07-31T23:33:51;5.75;;;3.08;;
45762;SDS011;37512;52.408;13.356;2023-07-31T23:37:53;5.97;;;3.38;;
45762;SDS011;37512;52.408;13.356;2023-07-31T23:41:55;7.05;;;3.10;;
45762;SDS011;37512;52.408;13.356;2023-07-31T23:45:56;7.78;;;3.80;;
45762;SDS011;37512;52.408;13.356;2023-07-31T23:49:58;4.53;;;3.20;;
45762;SDS011;37512;52.408;13.356;2023-07-31T23:53:59;7.50;;;3.88;;
45762;SDS011;37512;52.408;13.356;2023-07-31T23:58:01;5.60;;;3.33;;
